Time;durP1;ratioP1;P1;durP2;ratioP2;P2;SDS_P1;SDS_P2;PMS_P1;PMS_P2;Temp;Humidity;BMP_temperature;BMP_pressure;BME280_temperature;BME280_humidity;BME280_pressure;Samples;Min_cycle;Max_cycle;Signal;HPM_P1;HPM_P2
2023/08/25 00:02:25;;;;;;;14.50;8.33;;;20.10;99.90;;;;;;5067147;28;20455;-73
2023/08/25 00:05:11;;;;;;;12.17;8.97;;;20.10;99.90;;;;;;5073450;28;20415;-74
2023/08/25 00:07:56;;;;;;;10.73;8.97;;;20.20;99.90;;;;;;5071935;28;20854;-73
2023/08/25 00:10:42;;;;;;;11.53;9.87;;;20.30;99.90;;;;;;5067287;28;20441;-73
2023/08/25 00:13:29;;;;;;;10.93;9.93;;;20.20;99.90;;;;;;5073898;28;20580;-75
2023/08/25 00:16:15;;;;;;;11.67;8.70;;;20.30;99.90;;;;;;5076573;28;20417;-73
2023/08/25 00:19:00;;;;;;;13.40;8.80;;;20.30;99.90;;;;;;5073003;28;20453;-75
2023/08/25 00:21:46;;;;;;;12.33;7.93;;;20.20;99.90;;;;;;5074854;28;20468;-76
2023/08/25 00:24:32;;;;;;;34.90;8.57;;;20.00;99.90;;;;;;5076050;28;20483;-73
2023/08/25 00:27:18;;;;;;;16.67;10.47;;;20.00;99.90;;;;;;5074624;28;20466;-73
2023/08/25 00:30:08;;;;;;;16.17;8.73;;;20.00;99.90;;;;;;5078511;28;20447;-73
2023/08/25 00:32:54;;;;;;;13.20;9.60;;;19.90;99.90;;;;;;5078812;28;20997;-73
2023/08/25 00:35:42;;;;;;;24.63;10.00;;;19.90;99.90;;;;;;5070090;28;20470;-73
2023/08/25 00:38:28;;;;;;;18.67;11.47;;;19.80;99.90;;;;;;5081644;28;20457;-73
2023/08/25 00:41:13;;;;;;;14.43;10.70;;;19.80;99.90;;;;;;5078145;28;20442;-73
2023/08/25 00:43:59;;;;;;;14.70;9.93;;;19.80;99.90;;;;;;5077768;28;20803;-75
2023/08/25 00:46:46;;;;;;;11.70;10.27;;;20.00;99.90;;;;;;5076503;28;21978;-74
2023/08/25 00:49:32;;;;;;;11.30;9.57;;;20.00;99.90;;;;;;5063518;28;20906;-75
2023/08/25 00:52:19;;;;;;;12.83;10.33;;;20.10;99.90;;;;;;5063709;28;20491;-73
2023/08/25 00:55:07;;;;;;;12.80;8.23;;;20.10;99.90;;;;;;5062974;28;21031;-73
2023/08/25 00:57:55;;;;;;;15.53;9.10;;;20.20;99.90;;;;;;5064098;28;20485;-75
2023/08/25 01:00:41;;;;;;;19.63;9.53;;;20.30;99.90;;;;;;5065319;28;20475;-73
2023/08/25 01:03:29;;;;;;;11.33;9.40;;;20.30;99.90;;;;;;5067145;28;20494;-73
2023/08/25 01:06:15;;;;;;;16.77;11.13;;;20.20;99.90;;;;;;5058509;28;20806;-73
2023/08/25 01:09:01;;;;;;;13.37;10.73;;;20.10;99.90;;;;;;5066816;28;20450;-72
2023/08/25 01:11:54;;;;;;;11.20;9.70;;;20.10;99.90;;;;;;5065065;28;20448;-73
2023/08/25 01:14:51;;;;;;;11.53;10.30;;;20.00;99.90;;;;;;5062995;28;20844;-74
2023/08/25 01:17:43;;;;;;;11.53;10.33;;;20.00;99.90;;;;;;5056844;28;20442;-73
2023/08/25 01:20:31;;;;;;;10.70;9.53;;;20.00;99.90;;;;;;5060240;28;20578;-73
2023/08/25 01:23:27;;;;;;;12.83;11.50;;;20.00;99.90;;;;;;5059329;28;20447;-73
2023/08/25 01:26:14;;;;;;;10.80;9.70;;;20.00;99.90;;;;;;5061406;28;20449;-74
2023/08/25 01:29:00;;;;;;;11.47;10.37;;;20.00;99.90;;;;;;5065781;28;20467;-73
2023/08/25 01:31:46;;;;;;;20.77;10.10;;;20.00;99.90;;;;;;5065788;28;20446;-73
2023/08/25 01:34:33;;;;;;;11.60;8.47;;;20.10;99.90;;;;;;5066276;28;20480;-73
2023/08/25 01:37:32;;;;;;;11.80;8.87;;;20.10;99.90;;;;;;5062845;28;20757;-74
2023/08/25 01:40:24;;;;;;;16.10;8.63;;;20.20;99.90;;;;;;5068045;28;20593;-77
2023/08/25 01:43:14;;;;;;;19.37;9.00;;;20.10;99.90;;;;;;5061116;28;21104;-73
2023/08/25 01:46:00;;;;;;;11.00;10.00;;;20.00;99.90;;;;;;5061601;28;20978;-73
2023/08/25 01:48:49;;;;;;;10.60;9.40;;;19.90;99.90;;;;;;5070722;28;20608;-75
2023/08/25 01:51:35;;;;;;;9.90;9.00;;;20.00;99.90;;;;;;5059015;28;20450;-73
2023/08/25 01:54:21;;;;;;;14.67;8.97;;;20.00;99.90;;;;;;5064128;28;20500;-73
2023/08/25 01:57:07;;;;;;;10.10;9.00;;;20.00;99.90;;;;;;5062184;28;20461;-74
2023/08/25 01:59:54;;;;;;;15.60;10.07;;;20.00;99.90;;;;;;5064419;28;20448;-73
2023/08/25 02:02:40;;;;;;;12.10;10.90;;;19.90;99.90;;;;;;5064667;28;20966;-73
2023/08/25 02:05:26;;;;;;;12.47;10.07;;;19.80;99.90;;;;;;5065419;28;20438;-74
2023/08/25 02:08:11;;;;;;;11.47;9.97;;;19.80;99.90;;;;;;5064617;28;20517;-73
2023/08/25 02:10:57;;;;;;;18.83;10.37;;;19.80;99.90;;;;;;5063756;28;21143;-73
2023/08/25 02:13:42;;;;;;;12.10;9.33;;;19.80;99.90;;;;;;5064898;28;20458;-73
2023/08/25 02:16:29;;;;;;;10.43;9.53;;;19.80;99.90;;;;;;5061795;28;20926;-74
2023/08/25 02:19:15;;;;;;;10.40;8.90;;;19.80;99.90;;;;;;5067155;28;20420;-73
2023/08/25 02:22:01;;;;;;;11.77;9.60;;;19.90;99.90;;;;;;5067088;28;20442;-75
2023/08/25 02:24:46;;;;;;;14.47;9.60;;;19.90;99.90;;;;;;5060406;28;20766;-73
2023/08/25 02:27:32;;;;;;;10.57;9.47;;;19.90;99.90;;;;;;5059714;28;21060;-76
2023/08/25 02:30:18;;;;;;;14.67;9.10;;;20.00;99.90;;;;;;5063690;28;20965;-73
2023/08/25 02:33:06;;;;;;;9.87;8.33;;;20.00;99.90;;;;;;5061538;28;20966;-73
2023/08/25 02:35:52;;;;;;;14.93;8.30;;;20.00;99.90;;;;;;5063556;28;20453;-73
2023/08/25 02:38:37;;;;;;;10.87;8.97;;;20.00;99.90;;;;;;5060710;28;21044;-74
2023/08/25 02:41:23;;;;;;;10.43;9.53;;;20.00;99.90;;;;;;5063759;28;20810;-74
2023/08/25 02:44:10;;;;;;;11.33;9.17;;;20.00;99.90;;;;;;5070299;28;20753;-73
2023/08/25 02:46:55;;;;;;;13.03;7.30;;;19.90;99.90;;;;;;5066156;28;20449;-74
2023/08/25 02:49:42;;;;;;;9.27;7.40;;;19.80;99.90;;;;;;5067405;28;20784;-73
2023/08/25 02:52:28;;;;;;;11.60;7.60;;;19.90;99.90;;;;;;5064674;28;20485;-73
2023/08/25 02:55:16;;;;;;;18.07;8.20;;;19.90;99.90;;;;;;5071096;28;21018;-73
2023/08/25 02:58:01;;;;;;;10.87;7.77;;;19.80;99.90;;;;;;5061802;28;20463;-75
2023/08/25 03:00:47;;;;;;;11.40;8.67;;;19.80;99.90;;;;;;5059573;28;20959;-74
2023/08/25 03:03:33;;;;;;;9.60;8.10;;;19.60;99.90;;;;;;5063288;28;20565;-73
2023/08/25 03:06:20;;;;;;;12.60;7.67;;;19.60;99.90;;;;;;5066203;28;20450;-73
2023/08/25 03:09:05;;;;;;;18.37;8.23;;;19.60;99.90;;;;;;5057888;28;20466;-74
2023/08/25 03:11:51;;;;;;;17.87;7.70;;;19.70;99.90;;;;;;5057320;28;20424;-72
2023/08/25 03:14:37;;;;;;;14.90;7.67;;;19.60;99.90;;;;;;5065353;28;20465;-72
2023/08/25 03:17:23;;;;;;;10.27;7.00;;;19.50;99.90;;;;;;5066945;28;20520;-73
2023/08/25 03:20:09;;;;;;;15.10;8.07;;;19.40;99.90;;;;;;5066011;28;20458;-73
2023/08/25 03:22:57;;;;;;;16.53;7.90;;;19.40;99.90;;;;;;5054516;28;20450;-73
2023/08/25 03:25:43;;;;;;;9.10;8.03;;;19.30;99.90;;;;;;5061030;28;20896;-75
2023/08/25 03:28:29;;;;;;;12.53;9.57;;;19.30;99.90;;;;;;5058575;28;20463;-74
2023/08/25 03:31:14;;;;;;;9.70;7.70;;;19.20;99.90;;;;;;5056723;28;20528;-72
2023/08/25 03:34:00;;;;;;;10.80;8.20;;;19.20;99.90;;;;;;5059899;28;20487;-74
2023/08/25 03:36:46;;;;;;;15.13;8.23;;;19.10;99.90;;;;;;5063221;28;20471;-72
2023/08/25 03:39:33;;;;;;;11.00;9.20;;;19.20;99.90;;;;;;5064582;28;20454;-72
2023/08/25 03:42:19;;;;;;;10.80;8.60;;;19.10;99.90;;;;;;5060372;28;20528;-76
2023/08/25 03:45:06;;;;;;;9.90;9.00;;;19.00;99.90;;;;;;5056658;28;20788;-74
2023/08/25 03:47:53;;;;;;;20.70;10.63;;;19.00;99.90;;;;;;5057643;28;20962;-73
2023/08/25 03:50:38;;;;;;;16.03;8.77;;;19.00;99.90;;;;;;5064404;28;20467;-73
2023/08/25 03:53:24;;;;;;;12.63;8.20;;;19.10;99.90;;;;;;5065672;28;20441;-73
2023/08/25 03:56:11;;;;;;;16.30;10.13;;;19.20;99.90;;;;;;5061325;28;20547;-73
2023/08/25 03:58:56;;;;;;;10.40;7.50;;;19.30;99.90;;;;;;5061560;28;20427;-72
2023/08/25 04:01:42;;;;;;;8.03;7.10;;;19.30;99.90;;;;;;5058855;28;20903;-73
2023/08/25 04:04:28;;;;;;;10.17;8.70;;;19.30;99.90;;;;;;5064025;28;20593;-73
2023/08/25 04:07:14;;;;;;;12.70;7.67;;;19.30;99.90;;;;;;5059908;28;20474;-73
2023/08/25 04:10:00;;;;;;;8.50;7.60;;;19.30;99.90;;;;;;5061245;28;20543;-73
2023/08/25 04:12:47;;;;;;;13.70;7.50;;;19.20;99.90;;;;;;5060021;28;20449;-73
2023/08/25 04:15:32;;;;;;;10.20;8.83;;;19.10;99.90;;;;;;5061979;28;20468;-73
2023/08/25 04:18:18;;;;;;;10.87;7.73;;;19.10;99.90;;;;;;5062587;28;21005;-74
2023/08/25 04:21:04;;;;;;;11.80;7.93;;;19.00;99.90;;;;;;5060728;28;20598;-73
2023/08/25 04:23:49;;;;;;;9.87;7.53;;;19.00;99.90;;;;;;5064805;28;20953;-74
2023/08/25 04:26:35;;;;;;;14.43;7.40;;;19.00;99.90;;;;;;5058885;28;20437;-73
2023/08/25 04:29:22;;;;;;;11.50;7.00;;;19.00;99.90;;;;;;5063579;28;20964;-75
2023/08/25 04:32:08;;;;;;;9.50;8.50;;;19.10;99.90;;;;;;5073009;28;20450;-73
2023/08/25 04:34:54;;;;;;;12.53;7.83;;;19.10;99.90;;;;;;5063201;28;20615;-73
2023/08/25 04:37:40;;;;;;;10.93;7.97;;;19.10;99.90;;;;;;5063141;28;20461;-73
2023/08/25 04:40:26;;;;;;;15.43;7.93;;;19.20;99.90;;;;;;5062551;28;20897;-73
2023/08/25 04:43:12;;;;;;;8.37;6.90;;;19.30;99.90;;;;;;5061128;28;20788;-74
2023/08/25 04:45:58;;;;;;;13.83;8.43;;;19.30;99.90;;;;;;5068547;28;20444;-73
2023/08/25 04:48:46;;;;;;;8.57;7.50;;;19.30;99.90;;;;;;5070194;28;20840;-75
2023/08/25 04:51:31;;;;;;;11.60;7.53;;;19.40;99.90;;;;;;5063089;28;20570;-76
2023/08/25 04:54:17;;;;;;;9.10;7.27;;;19.40;99.90;;;;;;5060967;28;20446;-73
2023/08/25 04:57:03;;;;;;;13.50;7.33;;;19.50;99.90;;;;;;5063243;28;20489;-74
2023/08/25 04:59:49;;;;;;;15.07;9.03;;;19.60;99.90;;;;;;5068695;28;20489;-73
2023/08/25 05:02:35;;;;;;;8.87;8.03;;;19.70;99.90;;;;;;5063581;28;20543;-73
2023/08/25 05:05:21;;;;;;;10.27;8.30;;;19.80;99.90;;;;;;5068425;28;21178;-73
2023/08/25 05:08:07;;;;;;;10.20;8.63;;;19.70;99.90;;;;;;5067249;28;20457;-73
2023/08/25 05:10:52;;;;;;;12.43;8.07;;;19.80;99.90;;;;;;5063959;28;21943;-73
2023/08/25 05:13:38;;;;;;;15.60;9.70;;;19.80;99.90;;;;;;5067252;28;20472;-76
2023/08/25 05:16:24;;;;;;;10.33;7.83;;;19.80;99.90;;;;;;5063978;28;20444;-73
2023/08/25 05:19:13;;;;;;;13.17;7.73;;;19.80;99.90;;;;;;5062644;28;20441;-74
2023/08/25 05:21:59;;;;;;;13.50;6.90;;;19.80;99.90;;;;;;5065291;28;20445;-73
2023/08/25 05:24:45;;;;;;;10.63;7.10;;;19.80;99.90;;;;;;5072098;28;20461;-74
2023/08/25 05:27:30;;;;;;;8.00;6.47;;;19.90;99.90;;;;;;5065922;28;20538;-74
2023/08/25 05:30:16;;;;;;;9.47;7.87;;;20.00;99.90;;;;;;5064284;28;20501;-73
2023/08/25 05:33:02;;;;;;;12.50;8.07;;;20.00;99.90;;;;;;5065830;28;20457;-75
2023/08/25 05:35:50;;;;;;;10.10;7.67;;;19.80;99.90;;;;;;5061765;28;20474;-73
2023/08/25 05:38:35;;;;;;;14.33;7.27;;;19.80;99.90;;;;;;5065339;28;20469;-76
2023/08/25 05:41:21;;;;;;;12.07;7.30;;;19.80;99.90;;;;;;5059574;28;20450;-73
2023/08/25 05:44:07;;;;;;;9.27;6.93;;;19.90;99.90;;;;;;5057508;28;20421;-74
2023/08/25 05:49:23;;;;;;;8.83;6.70;;;20.10;99.90;;;;;;5041901;28;20653;-70
2023/08/25 05:52:09;;;;;;;10.73;7.10;;;20.10;99.90;;;;;;5040283;28;20458;-73
2023/08/25 05:54:55;;;;;;;12.83;8.57;;;20.20;99.90;;;;;;5045545;28;20622;-73
2023/08/25 05:57:41;;;;;;;11.13;8.33;;;20.20;99.90;;;;;;5041425;28;20506;-73
2023/08/25 06:00:26;;;;;;;11.70;8.37;;;20.20;99.90;;;;;;5041538;28;20454;-73
2023/08/25 06:03:12;;;;;;;9.73;8.73;;;20.20;99.90;;;;;;5038833;28;20446;-73
2023/08/25 06:05:58;;;;;;;18.20;9.00;;;20.20;99.90;;;;;;5039640;28;20548;-73
2023/08/25 06:08:45;;;;;;;19.73;9.00;;;20.30;99.90;;;;;;5042345;28;20462;-73
2023/08/25 06:11:30;;;;;;;13.27;8.80;;;20.30;99.90;;;;;;5037172;28;20504;-73
2023/08/25 06:14:16;;;;;;;10.07;8.10;;;20.40;99.90;;;;;;5041164;28;20455;-73
2023/08/25 06:17:02;;;;;;;9.87;7.63;;;20.40;99.90;;;;;;5039490;28;20884;-73
2023/08/25 06:19:48;;;;;;;11.40;7.70;;;20.50;99.90;;;;;;5040688;28;20447;-73
2023/08/25 06:22:34;;;;;;;12.00;7.77;;;20.50;99.90;;;;;;5038817;28;20963;-73
2023/08/25 06:25:21;;;;;;;22.93;8.50;;;20.50;99.90;;;;;;5041206;28;20446;-70
2023/08/25 06:28:06;;;;;;;16.13;7.83;;;20.50;99.90;;;;;;5033251;28;20470;-70
2023/08/25 06:30:52;;;;;;;10.50;7.47;;;20.50;99.90;;;;;;5041432;28;20696;-70
2023/08/25 06:33:39;;;;;;;12.77;6.93;;;20.50;99.90;;;;;;5039005;28;20458;-71
2023/08/25 06:36:25;;;;;;;11.63;6.77;;;20.60;99.90;;;;;;5041201;28;20467;-70
2023/08/25 06:39:11;;;;;;;12.47;6.87;;;20.60;99.90;;;;;;5041960;28;20561;-71
2023/08/25 06:41:58;;;;;;;13.37;6.80;;;20.60;99.90;;;;;;5038668;28;20451;-70
2023/08/25 06:44:43;;;;;;;11.00;6.40;;;20.40;99.90;;;;;;5038328;28;20819;-71
2023/08/25 06:47:30;;;;;;;9.07;6.83;;;20.30;99.90;;;;;;5038290;28;20856;-71
2023/08/25 06:50:15;;;;;;;12.70;6.70;;;20.30;99.90;;;;;;5044799;28;21204;-71
2023/08/25 06:53:01;;;;;;;10.63;7.03;;;20.20;99.90;;;;;;5038233;28;20841;-71
2023/08/25 06:55:46;;;;;;;8.53;6.57;;;20.20;99.90;;;;;;5041374;28;20469;-71
2023/08/25 06:58:33;;;;;;;10.30;6.97;;;20.20;99.90;;;;;;5040990;28;20465;-71
2023/08/25 07:01:19;;;;;;;7.73;5.67;;;20.20;99.90;;;;;;5035916;28;20836;-71
2023/08/25 07:04:05;;;;;;;14.70;7.40;;;20.20;99.90;;;;;;5043698;28;20447;-71
2023/08/25 07:06:50;;;;;;;17.20;6.33;;;20.20;99.90;;;;;;5043305;28;20886;-71
2023/08/25 07:09:37;;;;;;;8.33;5.90;;;20.10;99.90;;;;;;5033049;28;20451;-71
2023/08/25 07:12:22;;;;;;;9.73;5.80;;;20.00;99.90;;;;;;5038470;28;20450;-71
2023/08/25 07:15:10;;;;;;;12.70;6.00;;;20.00;99.90;;;;;;5040519;28;20491;-71
2023/08/25 07:17:56;;;;;;;15.53;6.13;;;19.90;99.90;;;;;;5037747;28;20466;-70
2023/08/25 07:20:41;;;;;;;20.93;5.57;;;20.00;99.90;;;;;;5040011;28;20806;-71
2023/08/25 07:23:27;;;;;;;9.03;4.50;;;19.90;99.90;;;;;;5039624;28;20433;-71
2023/08/25 07:26:13;;;;;;;9.03;6.60;;;19.80;99.90;;;;;;5040457;28;20803;-71
2023/08/25 07:28:59;;;;;;;8.73;5.73;;;19.80;99.90;;;;;;5033237;28;22064;-71
2023/08/25 07:31:46;;;;;;;12.67;6.33;;;19.80;99.90;;;;;;5037691;28;20439;-71
2023/08/25 07:34:31;;;;;;;7.67;4.97;;;19.80;99.90;;;;;;5039563;28;20455;-71
2023/08/25 07:37:17;;;;;;;12.83;4.90;;;19.90;99.90;;;;;;5040726;28;20621;-71
2023/08/25 07:40:05;;;;;;;7.97;3.93;;;20.00;99.90;;;;;;5040753;28;20450;-71
2023/08/25 07:42:51;;;;;;;9.00;4.93;;;20.10;99.90;;;;;;5039132;28;20894;-71
2023/08/25 07:45:38;;;;;;;7.70;4.57;;;20.20;99.90;;;;;;5042584;28;20444;-72
2023/08/25 07:48:24;;;;;;;7.63;4.83;;;20.30;99.90;;;;;;5045257;28;20826;-71
2023/08/25 07:51:10;;;;;;;10.23;5.00;;;20.20;99.90;;;;;;5043793;28;20996;-71
2023/08/25 07:53:56;;;;;;;14.40;4.53;;;20.10;99.90;;;;;;5042566;28;20965;-71
2023/08/25 07:56:41;;;;;;;8.87;5.20;;;20.10;99.90;;;;;;5042273;28;20474;-71
2023/08/25 07:59:27;;;;;;;8.77;5.00;;;20.20;99.90;;;;;;5044275;28;20440;-71
2023/08/25 08:02:13;;;;;;;6.77;5.47;;;20.30;99.90;;;;;;5037456;28;20439;-71
2023/08/25 08:05:00;;;;;;;9.30;5.50;;;20.50;99.90;;;;;;5046357;28;20438;-71
2023/08/25 08:07:46;;;;;;;12.50;4.13;;;20.60;99.90;;;;;;5039583;28;20442;-71
2023/08/25 08:10:32;;;;;;;6.40;3.80;;;20.80;99.90;;;;;;5041092;28;20459;-71
2023/08/25 08:13:17;;;;;;;12.23;4.57;;;20.90;99.90;;;;;;5043613;28;20490;-71
2023/08/25 08:16:04;;;;;;;3.50;3.03;;;21.00;99.90;;;;;;5038102;28;20614;-71
2023/08/25 08:18:49;;;;;;;5.17;4.17;;;21.10;99.90;;;;;;5038418;28;20445;-71
2023/08/25 08:21:36;;;;;;;9.60;4.67;;;21.40;99.90;;;;;;5039618;28;20910;-71
2023/08/25 08:24:22;;;;;;;6.27;4.00;;;21.50;99.90;;;;;;5044520;28;20820;-71
2023/08/25 08:27:08;;;;;;;6.63;3.57;;;21.50;99.90;;;;;;5043229;28;20470;-72
2023/08/25 08:29:53;;;;;;;5.43;3.73;;;21.60;99.90;;;;;;5042300;28;20529;-71
2023/08/25 08:32:40;;;;;;;8.47;3.60;;;21.60;99.90;;;;;;5043419;28;20808;-71
2023/08/25 08:35:25;;;;;;;6.40;3.97;;;21.70;99.90;;;;;;5035536;28;21003;-71
2023/08/25 08:38:12;;;;;;;5.47;3.50;;;21.70;99.90;;;;;;5043723;28;20474;-71
2023/08/25 08:41:02;;;;;;;4.20;2.60;;;21.80;99.90;;;;;;5041372;28;20752;-71
2023/08/25 08:43:53;;;;;;;5.53;3.63;;;21.80;99.90;;;;;;5048222;28;20447;-71
2023/08/25 08:46:42;;;;;;;6.13;3.23;;;21.70;99.90;;;;;;5041387;28;20798;-71
2023/08/25 08:49:28;;;;;;;4.40;3.10;;;21.80;99.90;;;;;;5040121;28;20470;-71
2023/08/25 08:52:15;;;;;;;5.87;3.40;;;21.70;99.90;;;;;;5043781;28;20443;-71
2023/08/25 08:55:04;;;;;;;4.03;3.03;;;21.70;99.90;;;;;;5041617;28;20405;-71
2023/08/25 08:57:51;;;;;;;10.40;2.90;;;21.80;99.90;;;;;;5041210;28;20487;-70
2023/08/25 09:00:36;;;;;;;9.63;3.40;;;21.80;99.90;;;;;;5038221;28;20574;-71
2023/08/25 09:03:31;;;;;;;3.83;2.83;;;21.80;99.90;;;;;;5040020;28;20447;-71
2023/08/25 09:06:17;;;;;;;5.80;2.57;;;22.00;99.90;;;;;;5039337;28;21079;-71
2023/08/25 09:09:05;;;;;;;4.57;2.80;;;22.20;99.90;;;;;;5043953;28;20463;-71
2023/08/25 09:11:52;;;;;;;5.20;2.80;;;22.30;99.90;;;;;;5037829;28;20925;-71
2023/08/25 09:14:38;;;;;;;6.30;3.30;;;22.50;99.90;;;;;;5038112;28;20464;-71
2023/08/25 09:17:23;;;;;;;3.97;2.50;;;22.50;99.90;;;;;;5040207;28;20483;-71
2023/08/25 09:20:10;;;;;;;7.37;2.67;;;22.50;99.90;;;;;;5038225;28;20964;-71
2023/08/25 09:22:56;;;;;;;4.53;2.77;;;22.70;99.90;;;;;;5040950;28;20813;-71
2023/08/25 09:25:42;;;;;;;5.43;2.83;;;22.90;99.90;;;;;;5042082;28;20460;-71
2023/08/25 09:28:29;;;;;;;4.50;2.70;;;23.00;99.90;;;;;;5043231;28;20463;-71
2023/08/25 09:31:21;;;;;;;6.23;2.60;;;23.20;99.90;;;;;;5042798;28;20434;-71
2023/08/25 09:34:08;;;;;;;5.30;2.60;;;23.40;99.90;;;;;;5041545;28;20585;-71
2023/08/25 09:36:55;;;;;;;4.47;2.80;;;23.50;99.90;;;;;;5039872;28;22477;-72
2023/08/25 09:39:43;;;;;;;4.87;3.00;;;23.60;99.90;;;;;;5045667;28;20444;-71
2023/08/25 09:42:29;;;;;;;5.50;2.77;;;23.60;99.90;;;;;;5039109;28;20446;-72
2023/08/25 09:45:16;;;;;;;4.13;2.50;;;23.80;99.90;;;;;;5044565;28;20445;-71
2023/08/25 09:48:13;;;;;;;6.43;2.80;;;24.00;99.90;;;;;;5043274;28;20837;-71
2023/08/25 09:50:59;;;;;;;4.60;2.90;;;24.10;99.90;;;;;;5043881;28;20954;-71
2023/08/25 09:53:49;;;;;;;3.77;2.53;;;24.20;99.90;;;;;;5043596;28;20953;-71
2023/08/25 09:56:35;;;;;;;3.90;2.67;;;24.30;99.90;;;;;;5041697;28;20506;-71
2023/08/25 09:59:21;;;;;;;5.73;2.97;;;24.30;99.90;;;;;;5041796;28;20614;-71
2023/08/25 10:02:11;;;;;;;3.50;2.30;;;24.30;99.90;;;;;;5039654;28;20453;-71
2023/08/25 10:04:57;;;;;;;3.87;2.93;;;24.20;99.90;;;;;;5042236;28;20569;-71
2023/08/25 10:07:43;;;;;;;6.37;2.97;;;24.30;99.90;;;;;;5043706;28;20937;-71
2023/08/25 10:10:34;;;;;;;6.00;2.60;;;24.30;99.90;;;;;;5042864;28;20809;-71
2023/08/25 10:13:22;;;;;;;3.77;2.67;;;24.30;99.90;;;;;;5042950;28;20499;-69
2023/08/25 10:16:12;;;;;;;9.50;3.53;;;24.30;99.90;;;;;;5037253;28;21006;-71
2023/08/25 10:19:02;;;;;;;7.90;2.90;;;24.30;99.90;;;;;;5045816;28;20824;-71
2023/08/25 10:21:50;;;;;;;4.13;2.70;;;24.30;99.90;;;;;;5042930;28;20446;-72
2023/08/25 10:24:37;;;;;;;3.83;2.63;;;24.20;99.90;;;;;;5046177;28;20451;-71
2023/08/25 10:27:23;;;;;;;5.80;2.93;;;24.20;99.90;;;;;;5042582;28;20462;-70
2023/08/25 10:30:10;;;;;;;4.03;2.70;;;24.20;99.90;;;;;;5042616;28;20448;-71
2023/08/25 10:33:01;;;;;;;3.80;2.40;;;24.10;99.90;;;;;;5044037;28;20493;-71
2023/08/25 10:35:49;;;;;;;3.07;1.90;;;24.20;99.90;;;;;;5042805;28;20469;-71
2023/08/25 10:38:39;;;;;;;4.60;2.33;;;24.10;99.90;;;;;;5044397;28;20456;-70
2023/08/25 10:41:25;;;;;;;9.03;2.77;;;24.10;99.90;;;;;;5038473;28;20445;-71
2023/08/25 10:44:19;;;;;;;3.67;2.40;;;24.10;99.90;;;;;;5044455;28;20445;-71
2023/08/25 10:47:05;;;;;;;4.20;3.07;;;24.00;99.90;;;;;;5040397;28;20437;-71
2023/08/25 10:49:55;;;;;;;4.80;2.97;;;24.00;99.90;;;;;;5035810;28;20446;-71
2023/08/25 10:52:44;;;;;;;4.57;2.70;;;23.90;99.90;;;;;;5041805;28;20457;-71
2023/08/25 10:55:32;;;;;;;5.70;3.10;;;23.80;99.90;;;;;;5046593;28;20456;-71
2023/08/25 10:58:19;;;;;;;7.70;2.90;;;23.80;99.90;;;;;;5042220;28;20994;-71
2023/08/25 11:01:04;;;;;;;6.03;3.23;;;23.70;99.90;;;;;;5039474;28;20595;-71
2023/08/25 11:04:04;;;;;;;6.30;3.20;;;23.60;99.90;;;;;;5040323;28;20593;-71
2023/08/25 11:06:51;;;;;;;6.53;2.77;;;23.60;99.90;;;;;;5040815;28;20452;-72
2023/08/25 11:09:38;;;;;;;5.00;2.90;;;23.60;99.90;;;;;;5042745;28;20437;-71
2023/08/25 11:12:26;;;;;;;3.77;2.60;;;23.60;99.90;;;;;;5041628;28;20453;-72
2023/08/25 11:15:12;;;;;;;5.53;3.67;;;23.60;99.90;;;;;;5041148;28;20451;-71
2023/08/25 11:17:58;;;;;;;6.00;3.23;;;23.50;99.90;;;;;;5041421;28;20502;-69
2023/08/25 11:20:45;;;;;;;6.07;3.13;;;23.60;99.90;;;;;;5040393;28;20462;-71
2023/08/25 11:23:41;;;;;;;8.57;3.03;;;23.70;99.90;;;;;;5039099;28;21119;-72
2023/08/25 11:26:27;;;;;;;3.73;2.60;;;23.80;99.90;;;;;;5040787;28;20443;-71
2023/08/25 11:29:13;;;;;;;3.97;2.90;;;23.80;99.90;;;;;;5045581;28;20475;-72
2023/08/25 11:31:59;;;;;;;5.27;3.00;;;24.00;99.90;;;;;;5038186;28;20590;-71
2023/08/25 11:34:48;;;;;;;6.73;3.20;;;24.20;99.90;;;;;;5039134;28;20469;-72
2023/08/25 11:37:34;;;;;;;4.10;3.10;;;24.30;99.90;;;;;;5035704;28;20901;-72
2023/08/25 11:40:20;;;;;;;6.40;3.80;;;24.50;99.90;;;;;;5038685;28;20445;-71
2023/08/25 11:43:07;;;;;;;17.17;3.40;;;24.80;99.90;;;;;;5043259;28;20452;-71
2023/08/25 11:45:52;;;;;;;9.87;3.70;;;25.00;99.90;;;;;;5042510;28;20958;-71
2023/08/25 11:48:38;;;;;;;4.23;2.93;;;25.20;99.90;;;;;;5039067;28;20523;-71
2023/08/25 11:51:24;;;;;;;7.50;3.67;;;25.30;99.90;;;;;;5040957;28;20441;-72
2023/08/25 11:54:10;;;;;;;5.70;3.23;;;25.60;99.90;;;;;;5043508;28;20980;-72
2023/08/25 11:56:55;;;;;;;7.33;3.60;;;25.70;99.90;;;;;;5040586;28;20714;-71
2023/08/25 11:59:43;;;;;;;5.80;3.90;;;25.70;99.90;;;;;;5044158;28;20519;-71
2023/08/25 12:02:29;;;;;;;8.00;4.00;;;25.70;99.90;;;;;;5039671;28;20790;-72
2023/08/25 12:05:15;;;;;;;5.43;3.23;;;25.60;99.90;;;;;;5045880;28;20513;-71
2023/08/25 12:08:02;;;;;;;6.13;3.90;;;25.60;99.90;;;;;;5041240;28;20469;-72
2023/08/25 12:10:47;;;;;;;8.30;4.50;;;25.40;99.90;;;;;;5042102;28;20441;-71
2023/08/25 12:13:35;;;;;;;7.03;4.07;;;25.10;99.90;;;;;;5039601;28;20460;-72
2023/08/25 12:16:22;;;;;;;4.87;3.70;;;25.00;99.90;;;;;;5041533;28;20940;-71
2023/08/25 12:19:07;;;;;;;6.63;4.30;;;24.90;99.90;;;;;;5042940;28;20540;-71
2023/08/25 12:21:53;;;;;;;9.60;3.90;;;24.90;99.90;;;;;;5046607;28;20448;-72
2023/08/25 12:24:38;;;;;;;5.73;4.53;;;24.80;99.90;;;;;;5045057;28;20464;-71
2023/08/25 12:27:24;;;;;;;6.40;3.87;;;24.70;99.90;;;;;;5040056;28;20440;-71
2023/08/25 12:30:11;;;;;;;9.70;4.47;;;24.80;99.90;;;;;;5047083;28;20478;-72
2023/08/25 12:32:58;;;;;;;9.43;3.80;;;24.70;99.90;;;;;;5044888;28;20456;-71
2023/08/25 12:35:44;;;;;;;6.70;4.70;;;24.60;99.90;;;;;;5043148;28;20448;-71
2023/08/25 12:38:32;;;;;;;5.40;4.50;;;24.60;99.90;;;;;;5044912;28;20484;-72
2023/08/25 12:41:17;;;;;;;7.03;4.57;;;24.50;99.90;;;;;;5042677;28;20513;-72
2023/08/25 12:44:04;;;;;;;6.13;4.90;;;24.50;99.90;;;;;;5047467;28;20417;-72
2023/08/25 12:46:49;;;;;;;7.87;4.83;;;24.40;99.90;;;;;;5044395;28;20930;-72
2023/08/25 12:49:36;;;;;;;6.53;5.20;;;24.50;99.90;;;;;;5043035;28;20440;-71
2023/08/25 12:52:22;;;;;;;7.33;4.30;;;24.50;99.90;;;;;;5045831;28;20434;-70
2023/08/25 12:55:10;;;;;;;5.80;4.17;;;24.50;99.90;;;;;;5042893;28;20492;-72
2023/08/25 12:57:56;;;;;;;17.07;4.90;;;24.40;99.90;;;;;;5046414;28;20537;-72
2023/08/25 13:00:41;;;;;;;6.03;4.07;;;24.40;99.90;;;;;;5042395;28;20472;-72
2023/08/25 13:03:27;;;;;;;6.73;4.10;;;24.40;99.90;;;;;;5041208;28;21008;-71
2023/08/25 13:06:15;;;;;;;5.23;4.00;;;24.40;99.90;;;;;;5038948;28;20471;-72
2023/08/25 13:09:00;;;;;;;9.07;6.40;;;24.40;99.90;;;;;;5040648;28;20461;-72
2023/08/25 13:11:46;;;;;;;13.57;10.03;;;24.40;99.90;;;;;;5042331;28;20494;-72
2023/08/25 13:14:32;;;;;;;9.40;5.33;;;24.40;99.90;;;;;;5044180;28;20801;-72
2023/08/25 13:17:18;;;;;;;5.70;4.80;;;24.50;99.90;;;;;;5043894;28;20477;-71
2023/08/25 13:20:05;;;;;;;12.13;9.73;;;24.60;99.90;;;;;;5047911;28;20446;-72
2023/08/25 13:22:52;;;;;;;11.27;6.40;;;24.70;99.90;;;;;;5041776;28;20480;-71
2023/08/25 13:25:38;;;;;;;7.10;4.90;;;24.80;99.90;;;;;;5041514;28;20441;-71
2023/08/25 13:28:23;;;;;;;7.50;4.03;;;24.90;99.90;;;;;;5045272;28;20474;-72
2023/08/25 13:31:09;;;;;;;6.77;5.20;;;25.20;99.90;;;;;;5043586;28;20463;-72
2023/08/25 13:33:57;;;;;;;10.63;4.80;;;25.80;99.90;;;;;;5038070;28;20885;-72
2023/08/25 13:36:43;;;;;;;8.20;4.63;;;26.30;99.90;;;;;;5043183;28;20424;-71
2023/08/25 13:39:29;;;;;;;10.27;4.20;;;26.50;99.90;;;;;;5037282;28;21024;-72
2023/08/25 13:42:15;;;;;;;9.33;4.13;;;26.70;99.90;;;;;;5038746;28;20450;-70
2023/08/25 13:45:01;;;;;;;9.47;4.80;;;26.80;99.90;;;;;;5038565;28;20461;-72
2023/08/25 13:47:47;;;;;;;4.90;4.40;;;26.70;99.90;;;;;;5038392;28;20490;-72
2023/08/25 13:50:32;;;;;;;11.63;4.33;;;26.70;99.90;;;;;;5044031;28;20458;-72
2023/08/25 13:53:18;;;;;;;7.50;4.33;;;26.90;99.90;;;;;;5041280;28;20510;-72
2023/08/25 13:56:05;;;;;;;8.87;4.40;;;26.90;99.90;;;;;;5043085;28;20589;-72
2023/08/25 13:58:51;;;;;;;5.30;3.80;;;27.10;99.90;;;;;;5045335;28;20502;-71
2023/08/25 14:01:37;;;;;;;6.73;3.37;;;27.40;99.90;;;;;;5040296;28;20533;-72
2023/08/25 14:04:22;;;;;;;5.20;4.20;;;27.50;99.90;;;;;;5035452;28;20443;-72
2023/08/25 14:07:08;;;;;;;7.10;4.40;;;27.80;99.90;;;;;;5043318;28;20447;-72
2023/08/25 14:09:53;;;;;;;4.87;3.50;;;28.00;99.90;;;;;;5037705;28;20493;-71
2023/08/25 14:12:40;;;;;;;7.10;4.40;;;27.90;99.90;;;;;;5041770;28;20812;-72
2023/08/25 14:15:26;;;;;;;6.83;3.93;;;27.50;99.90;;;;;;5040585;28;20567;-72
2023/08/25 14:18:12;;;;;;;7.07;3.90;;;27.10;99.90;;;;;;5039067;28;20851;-72
2023/08/25 14:20:57;;;;;;;5.47;4.20;;;26.50;99.90;;;;;;5045919;28;20855;-73
2023/08/25 14:23:43;;;;;;;5.83;3.80;;;26.30;99.90;;;;;;5044591;28;20439;-73